Appleyard, Washington
Current Conditions -  °F | °C
As of 8:25 AM on Monday 26 Jan 2015 (Local Time) from KEAT Reporting Station
Moderate Fog Moderate Fog  
Wind Chill: -3°   Ceiling: 200
Heat Index:   Visibility: 0.25mi
Dew Point:   Wind: 7mph
Humidity: 96%   Direction: 310°NW
Pressure: 30.09"   Gusts: NA
Location:  47.3635°N, 120.348°W
Report Text: KEAT 261625Z AUTO 31006KT 1/4SM FG VV002 01/00 A3009 RMK AO2 T00060000
Loading
Personal Weather Stations






























Interactive Weather Map New forecast layout! Learn more

10-Day Weather Forecast

Advertisements
Track Severe Weather on mobile